Terminal Aerodrome Forecast
Issued by NWS

Home | Current Version | Previous Version | Text Only | Print | Product List | Glossary On
Versions: 1 2 3 4 5 6 7 8 9 10 11 12 13 14 15 16 17 18 19 20 21 22 23 24 25 26 27 28 29 30 31
000
FTUS43 KILX 271700 RRA
TAFCMI
TAF
KCMI 271741Z 2718/2818 VRB03KT P6SM VCSH BKN020
     FM272000 02006KT P6SM VCTS BKN035CB OVC150
     FM280100 03004KT P6SM BKN250=

USA.gov is the U.S. government's official web portal to all federal, state and local government web resources and services.